createdAt,value
2023-05-23T00:01:00.525Z,5.30
2023-05-23T00:03:33.342Z,8.57
2023-05-23T00:06:07.487Z,7.20
2023-05-23T00:08:43.925Z,4.57
2023-05-23T00:11:16.584Z,6.57
2023-05-23T00:13:51.227Z,8.67
2023-05-23T00:16:23.967Z,6.13
2023-05-23T00:18:57.767Z,8.33
2023-05-23T00:21:30.690Z,5.97
2023-05-23T00:24:05.405Z,6.50
2023-05-23T00:26:38.762Z,7.53
2023-05-23T00:29:15.682Z,7.13
2023-05-23T00:31:48.644Z,6.43
2023-05-23T00:34:21.456Z,5.90
2023-05-23T00:36:56.387Z,6.43
2023-05-23T00:39:30.561Z,7.50
2023-05-23T00:42:07.837Z,5.70
2023-05-23T00:44:40.736Z,6.27
2023-05-23T00:47:16.826Z,7.27
2023-05-23T00:49:49.587Z,7.77
2023-05-23T00:52:22.258Z,5.87
2023-05-23T00:54:56.567Z,6.73
2023-05-23T00:57:29.338Z,8.40
2023-05-23T01:00:02.287Z,8.57
2023-05-23T01:02:36.724Z,5.77
2023-05-23T01:05:10.280Z,4.73
2023-05-23T01:07:43.074Z,7.17
2023-05-23T01:10:17.636Z,7.60
2023-05-23T01:12:55.184Z,4.83
2023-05-23T01:15:32.623Z,6.93
2023-05-23T01:18:08.460Z,6.57
2023-05-23T01:20:45.190Z,5.90
2023-05-23T01:23:39.906Z,5.47
2023-05-23T01:26:26.257Z,5.30
2023-05-23T01:29:05.873Z,8.13
2023-05-23T01:31:40.796Z,5.93
2023-05-23T01:34:14.239Z,7.77
2023-05-23T01:36:46.936Z,7.80
2023-05-23T01:39:21.803Z,5.13
2023-05-23T01:41:57.363Z,5.63
2023-05-23T01:44:32.026Z,5.47
2023-05-23T01:47:05.351Z,13.87
2023-05-23T01:49:38.387Z,6.97
2023-05-23T01:52:13.719Z,7.07
2023-05-23T01:54:49.032Z,9.13
2023-05-23T01:57:28.989Z,6.57
2023-05-23T02:00:02.938Z,5.73
2023-05-23T02:02:35.748Z,5.70
2023-05-23T02:05:08.717Z,6.03
2023-05-23T02:07:41.386Z,7.20
2023-05-23T02:10:14.677Z,6.77
2023-05-23T02:12:47.244Z,6.03
2023-05-23T02:15:21.371Z,5.63
2023-05-23T02:17:53.966Z,7.67
2023-05-23T02:20:26.788Z,4.67
2023-05-23T02:22:59.433Z,6.67
2023-05-23T02:25:33.632Z,7.20
2023-05-23T02:28:20.292Z,7.10
2023-05-23T02:30:57.107Z,6.77
2023-05-23T02:33:31.109Z,5.20
2023-05-23T02:36:03.877Z,7.23
2023-05-23T02:38:36.538Z,8.23
2023-05-23T02:41:09.165Z,5.83
2023-05-23T02:43:46.887Z,10.07
2023-05-23T02:46:21.103Z,7.10
2023-05-23T02:48:53.729Z,6.40
2023-05-23T02:51:26.343Z,8.13
2023-05-23T02:53:59.797Z,8.13
2023-05-23T02:56:32.433Z,7.60
2023-05-23T02:59:05.200Z,7.13
2023-05-23T03:01:39.397Z,5.57
2023-05-23T03:04:13.710Z,5.93
2023-05-23T03:06:47.602Z,7.30
2023-05-23T03:09:20.389Z,6.17
2023-05-23T03:11:52.995Z,7.40
2023-05-23T03:14:25.752Z,10.13
2023-05-23T03:17:00.480Z,7.40
2023-05-23T03:19:35.630Z,8.33
2023-05-23T03:22:09.040Z,8.17
2023-05-23T03:24:41.690Z,6.30
2023-05-23T03:27:14.416Z,7.10
2023-05-23T03:29:50.404Z,7.97
2023-05-23T03:32:24.463Z,7.53
2023-05-23T03:34:57.068Z,8.07
2023-05-23T03:37:29.774Z,7.10
2023-05-23T03:40:02.653Z,8.33
2023-05-23T03:42:35.307Z,6.87
2023-05-23T03:45:08.413Z,8.97
2023-05-23T03:47:43.045Z,8.63
2023-05-23T03:50:15.803Z,7.63
2023-05-23T03:52:48.513Z,8.63
2023-05-23T03:55:22.432Z,8.33
2023-05-23T03:57:55.833Z,7.60
2023-05-23T04:00:28.614Z,7.20
2023-05-23T04:03:02.785Z,6.30
2023-05-23T04:05:35.628Z,8.93
2023-05-23T04:08:08.363Z,8.03
2023-05-23T04:10:41.065Z,8.50
2023-05-23T04:13:14.770Z,5.77
2023-05-23T04:15:50.151Z,7.97
2023-05-23T04:18:26.758Z,7.37
2023-05-23T04:21:01.340Z,8.70
2023-05-23T04:23:33.991Z,9.17
2023-05-23T04:26:06.805Z,7.23
2023-05-23T04:28:39.951Z,6.83
2023-05-23T04:31:12.741Z,12.37
2023-05-23T04:33:46.882Z,8.50
2023-05-23T04:36:19.534Z,7.50
2023-05-23T04:38:52.330Z,6.77
2023-05-23T04:41:25.461Z,12.60
2023-05-23T04:43:58.419Z,7.10
2023-05-23T04:46:31.124Z,6.70
2023-05-23T04:49:05.311Z,8.87
2023-05-23T04:51:40.529Z,9.50
2023-05-23T04:54:13.189Z,6.43
2023-05-23T04:56:45.923Z,7.20
2023-05-23T04:59:18.593Z,7.87
2023-05-23T05:01:51.256Z,8.23
2023-05-23T05:04:25.375Z,11.07
2023-05-23T05:06:58.269Z,8.43
2023-05-23T05:09:31.272Z,9.23
2023-05-23T05:12:03.941Z,8.40
2023-05-23T05:14:36.533Z,8.23
2023-05-23T05:17:09.441Z,7.37
2023-05-23T05:19:43.483Z,9.17
2023-05-23T05:22:16.258Z,10.30
2023-05-23T05:24:48.970Z,8.80
2023-05-23T05:27:21.697Z,8.50
2023-05-23T05:29:57.372Z,11.50
2023-05-23T05:32:31.319Z,9.60
2023-05-23T05:35:07.805Z,11.37
2023-05-23T05:37:40.473Z,10.97
2023-05-23T05:40:13.449Z,8.03
2023-05-23T05:42:47.875Z,9.73
2023-05-23T05:45:22.467Z,7.30
2023-05-23T05:47:55.150Z,10.73
2023-05-23T05:50:29.286Z,8.50
2023-05-23T05:53:01.978Z,7.97
2023-05-23T05:55:34.563Z,7.83
2023-05-23T05:58:07.189Z,10.20
2023-05-23T06:00:42.546Z,8.63
2023-05-23T06:03:15.919Z,6.87
2023-05-23T06:05:50.192Z,11.30
2023-05-23T06:08:23.249Z,11.00
2023-05-23T06:10:56.837Z,7.23
2023-05-23T06:13:29.889Z,10.00
2023-05-23T06:16:02.676Z,12.43
2023-05-23T06:18:35.449Z,6.73
2023-05-23T06:21:10.432Z,7.90
2023-05-23T06:23:43.228Z,12.00
2023-05-23T06:26:15.868Z,8.13
2023-05-23T06:28:48.512Z,8.07
2023-05-23T06:31:21.559Z,10.23
2023-05-23T06:33:57.312Z,13.73
2023-05-23T06:36:31.937Z,15.60
2023-05-23T06:39:04.683Z,10.57
2023-05-23T06:41:37.386Z,11.83
2023-05-23T06:44:10.104Z,11.73
2023-05-23T06:46:43.770Z,10.33
2023-05-23T06:49:16.523Z,16.87
2023-05-23T06:51:50.734Z,20.50
2023-05-23T06:54:23.699Z,16.77
2023-05-23T06:56:56.298Z,13.20
2023-05-23T06:59:32.435Z,11.97
2023-05-23T07:02:05.143Z,9.47
2023-05-23T07:04:37.856Z,15.93
2023-05-23T07:07:11.886Z,12.80
2023-05-23T07:09:44.503Z,8.57
2023-05-23T07:12:17.498Z,10.40
2023-05-23T07:14:51.979Z,11.07
2023-05-23T07:17:24.672Z,11.20
2023-05-23T07:19:57.514Z,14.90
2023-05-23T07:22:32.195Z,10.63
2023-05-23T07:25:05.358Z,8.93
2023-05-23T07:27:37.939Z,8.30
2023-05-23T07:30:12.119Z,9.00
2023-05-23T07:32:44.787Z,10.47
2023-05-23T07:35:17.782Z,11.83
2023-05-23T07:37:52.348Z,12.33
2023-05-23T07:40:25.113Z,8.90
2023-05-23T07:42:57.778Z,8.43
2023-05-23T07:45:30.383Z,10.33
2023-05-23T07:48:03.087Z,7.70
2023-05-23T07:50:35.808Z,7.83
2023-05-23T07:53:10.032Z,8.00
2023-05-23T07:55:42.946Z,8.77
2023-05-23T07:58:15.701Z,12.67
2023-05-23T08:00:50.424Z,7.87
2023-05-23T08:03:24.654Z,11.93
2023-05-23T08:05:57.439Z,19.93
2023-05-23T08:08:31.756Z,6.80
2023-05-23T08:11:04.472Z,9.07
2023-05-23T08:13:37.315Z,11.53
2023-05-23T08:16:10.141Z,10.13
2023-05-23T08:18:42.980Z,7.27
2023-05-23T08:21:15.666Z,11.20
2023-05-23T08:23:49.776Z,11.37
2023-05-23T08:26:23.005Z,8.20
2023-05-23T08:28:55.996Z,10.47
2023-05-23T08:31:29.035Z,7.43
2023-05-23T08:34:02.603Z,7.60
2023-05-23T08:36:36.429Z,13.70
2023-05-23T08:39:13.822Z,6.70
2023-05-23T08:41:47.888Z,8.50
2023-05-23T08:44:20.708Z,10.70
2023-05-23T08:46:54.579Z,7.77
2023-05-23T08:49:27.433Z,7.50
2023-05-23T08:52:02.654Z,8.10
2023-05-23T08:54:41.089Z,7.70
2023-05-23T08:57:13.911Z,7.50
2023-05-23T08:59:48.118Z,7.27
2023-05-23T09:02:20.826Z,9.97
2023-05-23T09:04:53.566Z,9.67
2023-05-23T09:07:26.414Z,7.47
2023-05-23T09:10:00.558Z,8.30
2023-05-23T09:12:33.492Z,8.30
2023-05-23T09:15:06.575Z,9.40
2023-05-23T09:17:40.199Z,9.17
2023-05-23T09:20:19.684Z,8.20
2023-05-23T09:22:52.488Z,7.40
2023-05-23T09:25:29.035Z,9.37
2023-05-23T09:28:01.829Z,7.60
2023-05-23T09:30:35.532Z,7.17
2023-05-23T09:33:08.957Z,8.73
2023-05-23T09:35:45.254Z,7.33
2023-05-23T09:38:20.144Z,8.13
2023-05-23T09:40:56.017Z,9.80
2023-05-23T09:43:29.885Z,8.23
2023-05-23T09:46:02.868Z,8.73
2023-05-23T09:48:35.937Z,8.30
2023-05-23T09:51:09.976Z,8.60
2023-05-23T09:53:44.759Z,8.90
2023-05-23T09:56:19.226Z,8.60
2023-05-23T09:58:52.122Z,8.77
2023-05-23T10:01:26.002Z,12.73
2023-05-23T10:04:00.481Z,9.20
2023-05-23T10:06:36.436Z,10.47
2023-05-23T10:09:11.934Z,10.33
2023-05-23T10:12:17.703Z,9.17
2023-05-23T10:14:55.345Z,7.80
2023-05-23T10:17:33.144Z,7.23
2023-05-23T10:20:12.011Z,6.73
2023-05-23T10:22:44.790Z,7.40
2023-05-23T10:25:27.610Z,8.53
2023-05-23T10:28:04.334Z,9.60
2023-05-23T10:30:37.490Z,9.40
2023-05-23T10:33:11.679Z,8.47
2023-05-23T10:35:49.120Z,9.77
2023-05-23T10:38:34.545Z,8.90
2023-05-23T10:41:10.617Z,10.40
2023-05-23T10:43:46.271Z,8.23
2023-05-23T10:46:21.661Z,8.03
2023-05-23T10:48:57.301Z,9.97
2023-05-23T10:51:39.467Z,11.87
2023-05-23T10:54:12.699Z,10.43
2023-05-23T10:56:47.554Z,13.10
2023-05-23T10:59:28.795Z,12.77
2023-05-23T11:02:02.617Z,12.27
2023-05-23T11:04:36.177Z,12.93
2023-05-23T11:07:28.856Z,13.60
2023-05-23T11:10:11.836Z,14.60
2023-05-23T11:12:45.346Z,15.23
2023-05-23T11:15:25.386Z,14.73
2023-05-23T11:17:58.585Z,15.13
2023-05-23T11:20:31.712Z,14.67
2023-05-23T11:23:05.095Z,15.40
2023-05-23T11:25:46.823Z,15.57
2023-05-23T11:28:19.776Z,15.13
2023-05-23T11:30:54.074Z,17.67
2023-05-23T11:33:27.123Z,16.20
2023-05-23T11:36:00.469Z,21.37
2023-05-23T11:38:33.548Z,19.30
2023-05-23T11:41:06.417Z,18.20
2023-05-23T11:43:39.296Z,18.23
2023-05-23T11:46:13.407Z,18.90
2023-05-23T11:48:46.630Z,19.23
2023-05-23T11:51:19.887Z,19.60
2023-05-23T11:53:52.702Z,19.20
2023-05-23T11:56:25.474Z,19.60
2023-05-23T11:58:58.708Z,20.67
2023-05-23T12:01:38.176Z,23.47
2023-05-23T12:04:11.852Z,21.40
2023-05-23T12:06:47.684Z,20.60
2023-05-23T12:09:20.702Z,19.00
2023-05-23T12:11:56.434Z,18.93
2023-05-23T12:14:32.061Z,21.00
2023-05-23T12:17:06.635Z,24.60
2023-05-23T12:19:39.887Z,20.20
2023-05-23T12:22:12.678Z,18.67
2023-05-23T12:24:46.963Z,18.80
2023-05-23T12:27:19.655Z,19.23
2023-05-23T12:29:52.798Z,21.40
2023-05-23T12:32:27.369Z,17.73
2023-05-23T12:35:00.186Z,18.37
2023-05-23T12:37:32.973Z,19.83
2023-05-23T12:40:15.541Z,21.53
2023-05-23T12:42:55.734Z,19.10
2023-05-23T12:45:32.916Z,18.40
2023-05-23T12:48:08.859Z,19.80
2023-05-23T12:50:41.723Z,20.20
2023-05-23T12:53:14.574Z,23.10
2023-05-23T12:55:47.244Z,19.03
2023-05-23T12:58:19.836Z,17.37
2023-05-23T13:00:52.667Z,19.33
2023-05-23T13:03:28.298Z,16.80
2023-05-23T13:06:01.746Z,15.57
2023-05-23T13:08:34.496Z,18.40
2023-05-23T13:11:07.264Z,17.83
2023-05-23T13:13:40.026Z,18.90
2023-05-23T13:16:13.899Z,18.93
2023-05-23T13:18:49.073Z,19.77
2023-05-23T13:21:22.905Z,15.50
2023-05-23T13:23:55.845Z,22.47
2023-05-23T13:26:28.609Z,20.10
2023-05-23T13:29:01.652Z,23.57
2023-05-23T13:31:34.364Z,20.23
2023-05-23T13:34:08.666Z,20.60
2023-05-23T13:36:41.475Z,20.03
2023-05-23T13:39:14.498Z,22.97
2023-05-23T13:41:47.280Z,21.20
2023-05-23T13:44:20.002Z,25.80
2023-05-23T13:46:52.841Z,22.77
2023-05-23T13:49:26.966Z,21.57
2023-05-23T13:51:59.669Z,21.37
2023-05-23T13:54:32.361Z,21.03
2023-05-23T13:57:05.575Z,21.63
2023-05-23T13:59:42.845Z,23.60
2023-05-23T14:02:15.692Z,23.97
2023-05-23T14:04:50.033Z,23.33
2023-05-23T14:07:23.348Z,23.87
2023-05-23T14:09:56.112Z,24.90
2023-05-23T14:12:28.967Z,25.90
2023-05-23T14:15:02.034Z,23.00
2023-05-23T14:17:34.737Z,24.77
2023-05-23T14:20:09.706Z,25.00
2023-05-23T14:22:42.477Z,21.97
2023-05-23T14:25:15.480Z,20.60
2023-05-23T14:27:48.280Z,23.53
2023-05-23T14:30:20.954Z,19.60
2023-05-23T14:32:54.253Z,20.40
2023-05-23T14:35:29.583Z,19.10
2023-05-23T14:38:02.247Z,21.33
2023-05-23T14:40:35.079Z,19.67
2023-05-23T14:43:07.936Z,18.63
2023-05-23T14:45:40.856Z,19.17
2023-05-23T14:48:14.307Z,19.07
2023-05-23T14:50:48.450Z,21.10
2023-05-23T14:53:23.939Z,19.23
2023-05-23T14:55:59.496Z,16.37
2023-05-23T14:58:32.666Z,17.17
2023-05-23T15:01:05.557Z,13.00
2023-05-23T15:03:38.350Z,11.50
2023-05-23T15:06:12.490Z,11.77
2023-05-23T15:08:46.879Z,12.13
2023-05-23T15:11:27.666Z,10.77
2023-05-23T15:14:00.827Z,6.57
2023-05-23T15:16:35.009Z,9.17
2023-05-23T15:19:11.070Z,9.43
2023-05-23T15:24:20.764Z,7.70
2023-05-23T15:27:02.253Z,7.97
2023-05-23T15:29:42.190Z,9.87
2023-05-23T15:32:14.877Z,11.17
2023-05-23T15:34:49.664Z,7.57
2023-05-23T15:37:23.914Z,7.40
2023-05-23T15:39:56.626Z,13.57
2023-05-23T15:42:29.526Z,9.47
2023-05-23T15:45:02.293Z,8.40
2023-05-23T15:47:35.042Z,7.87
2023-05-23T15:50:08.601Z,8.27
2023-05-23T15:52:42.750Z,9.00
2023-05-23T15:55:15.863Z,8.50
2023-05-23T15:57:48.495Z,5.90
2023-05-23T16:00:21.693Z,9.40
2023-05-23T16:02:54.371Z,9.10
2023-05-23T16:05:27.167Z,7.90
2023-05-23T16:08:01.238Z,10.23
2023-05-23T16:10:33.951Z,14.13
2023-05-23T16:13:07.719Z,9.43
2023-05-23T16:15:40.519Z,8.10
2023-05-23T16:18:13.331Z,8.50
2023-05-23T16:20:46.306Z,8.03
2023-05-23T16:23:20.530Z,8.83
2023-05-23T16:25:53.272Z,8.53
2023-05-23T16:28:28.524Z,11.30
2023-05-23T16:31:01.317Z,8.83
2023-05-23T16:33:33.978Z,8.70
2023-05-23T16:36:06.786Z,10.50
2023-05-23T16:38:43.315Z,8.43
2023-05-23T16:41:16.219Z,9.23
2023-05-23T16:43:48.952Z,11.90
2023-05-23T16:46:22.805Z,9.00
2023-05-23T16:48:55.863Z,8.57
2023-05-23T16:51:28.601Z,5.97
2023-05-23T16:54:02.731Z,6.53
2023-05-23T16:56:35.454Z,6.53
2023-05-23T16:59:08.184Z,6.17
2023-05-23T17:01:41.446Z,5.67
2023-05-23T17:04:14.176Z,5.50
2023-05-23T17:06:46.833Z,5.47
2023-05-23T17:09:21.914Z,5.77
2023-05-23T17:11:57.626Z,5.17
2023-05-23T17:14:30.449Z,4.10
2023-05-23T17:17:06.532Z,5.17
2023-05-23T17:19:39.334Z,4.83
2023-05-23T17:22:12.232Z,4.60
2023-05-23T17:24:46.631Z,4.90
2023-05-23T17:27:20.599Z,5.00
2023-05-23T17:29:53.251Z,4.40
2023-05-23T17:32:26.268Z,4.17
2023-05-23T17:34:58.861Z,7.07
2023-05-23T17:37:33.452Z,4.97
2023-05-23T17:40:10.640Z,4.43
2023-05-23T17:42:43.596Z,6.03
2023-05-23T17:45:17.438Z,4.33
2023-05-23T17:47:50.128Z,6.50
2023-05-23T17:50:24.224Z,6.87
2023-05-23T17:52:57.319Z,4.13
2023-05-23T17:55:31.356Z,5.90
2023-05-23T17:58:04.012Z,6.20
2023-05-23T18:00:36.742Z,7.17
2023-05-23T18:03:09.593Z,6.20
2023-05-23T18:05:42.196Z,4.97
2023-05-23T18:08:14.991Z,8.47
2023-05-23T18:10:49.103Z,11.70
2023-05-23T18:13:21.936Z,7.50
2023-05-23T18:15:54.633Z,10.23
2023-05-23T18:18:27.521Z,11.37
2023-05-23T18:21:00.191Z,8.40
2023-05-23T18:23:35.419Z,8.07
2023-05-23T18:26:12.222Z,7.47
2023-05-23T18:28:44.870Z,8.17
2023-05-23T18:31:17.709Z,7.47
2023-05-23T18:33:50.845Z,11.03
2023-05-23T18:36:23.649Z,11.10
2023-05-23T18:38:56.274Z,6.93
2023-05-23T18:41:30.264Z,9.93
2023-05-23T18:44:05.002Z,9.67
2023-05-23T18:46:37.782Z,8.87
2023-05-23T18:49:10.583Z,10.60
2023-05-23T18:51:45.404Z,8.40
2023-05-23T18:54:18.591Z,6.47
2023-05-23T18:56:52.797Z,7.67
2023-05-23T18:59:25.630Z,10.30
2023-05-23T19:01:59.840Z,9.90
2023-05-23T19:04:32.591Z,8.70
2023-05-23T19:07:07.421Z,8.80
2023-05-23T19:09:40.087Z,7.77
2023-05-23T19:12:14.209Z,7.70
2023-05-23T19:14:47.113Z,7.80
2023-05-23T19:17:19.704Z,7.90
2023-05-23T19:19:52.346Z,15.00
2023-05-23T19:22:26.552Z,13.83
2023-05-23T19:25:00.673Z,10.27
2023-05-23T19:27:36.683Z,9.57
2023-05-23T19:30:09.834Z,8.03
2023-05-23T19:32:46.759Z,8.43
2023-05-23T19:35:21.939Z,10.77
2023-05-23T19:37:57.782Z,8.30
2023-05-23T19:40:31.000Z,13.63
2023-05-23T19:43:05.209Z,11.53
2023-05-23T19:45:39.666Z,9.20
2023-05-23T19:48:12.310Z,8.90
2023-05-23T19:50:45.530Z,9.10
2023-05-23T19:53:25.563Z,8.57
2023-05-23T19:55:58.552Z,9.70
2023-05-23T19:58:35.031Z,7.47
2023-05-23T20:01:08.222Z,8.57
2023-05-23T20:03:41.475Z,8.53
2023-05-23T20:06:16.887Z,11.13
2023-05-23T20:08:49.508Z,7.17
2023-05-23T20:11:25.037Z,11.97
2023-05-23T20:13:59.329Z,9.00
2023-05-23T20:16:32.082Z,7.77
2023-05-23T20:19:04.974Z,7.80
2023-05-23T20:21:37.780Z,9.13
2023-05-23T20:24:11.693Z,9.83
2023-05-23T20:26:44.434Z,7.77
2023-05-23T20:29:18.532Z,9.30
2023-05-23T20:31:52.256Z,7.77
2023-05-23T20:34:25.149Z,7.97
2023-05-23T20:36:57.788Z,10.93
2023-05-23T20:39:30.706Z,14.40
2023-05-23T20:42:05.657Z,9.63
2023-05-23T20:44:39.765Z,9.43
2023-05-23T20:47:15.530Z,13.83
2023-05-23T20:49:49.108Z,9.53
2023-05-23T20:52:22.943Z,9.70
2023-05-23T20:54:57.225Z,11.07
2023-05-23T20:57:30.591Z,13.50
2023-05-23T21:00:11.085Z,13.10
2023-05-23T21:02:47.075Z,7.80
2023-05-23T21:05:19.806Z,7.87
2023-05-23T21:07:52.551Z,12.70
2023-05-23T21:10:25.219Z,7.80
2023-05-23T21:12:57.811Z,12.23
2023-05-23T21:15:31.939Z,8.87
2023-05-23T21:18:04.882Z,8.00
2023-05-23T21:20:37.736Z,12.37
2023-05-23T21:23:10.563Z,15.23
2023-05-23T21:25:47.723Z,11.87
2023-05-23T21:28:20.554Z,11.07
2023-05-23T21:30:54.901Z,11.50
2023-05-23T21:33:28.330Z,11.17
2023-05-23T21:36:01.101Z,14.53
2023-05-23T21:38:37.305Z,10.10
2023-05-23T21:41:11.734Z,10.83
2023-05-23T21:43:45.711Z,9.73
2023-05-23T21:46:22.798Z,13.97
2023-05-23T21:48:55.597Z,7.80
2023-05-23T21:51:28.262Z,10.73
2023-05-23T21:54:01.037Z,11.90
2023-05-23T21:56:33.797Z,13.47
2023-05-23T21:59:06.595Z,11.33
2023-05-23T22:01:40.618Z,12.40
2023-05-23T22:04:13.266Z,10.87
2023-05-23T22:06:45.854Z,7.60
2023-05-23T22:09:18.635Z,9.63
2023-05-23T22:11:51.241Z,10.17
2023-05-23T22:14:23.821Z,9.03
2023-05-23T22:16:59.036Z,9.20
2023-05-23T22:19:31.854Z,10.87
2023-05-23T22:22:07.848Z,9.83
2023-05-23T22:24:40.593Z,12.30
2023-05-23T22:27:13.253Z,8.33
2023-05-23T22:29:46.012Z,11.87
2023-05-23T22:32:19.965Z,8.00
2023-05-23T22:34:55.598Z,10.27
2023-05-23T22:37:28.311Z,12.83
2023-05-23T22:40:01.109Z,15.40
2023-05-23T22:42:33.814Z,9.43
2023-05-23T22:45:07.365Z,13.73
2023-05-23T22:47:41.697Z,15.00
2023-05-23T22:50:14.468Z,9.33
2023-05-23T22:52:51.320Z,15.50
2023-05-23T22:55:26.049Z,13.70
2023-05-23T22:58:01.347Z,9.97
2023-05-23T23:00:34.023Z,9.47
2023-05-23T23:03:13.369Z,15.47
2023-05-23T23:05:46.464Z,10.13
2023-05-23T23:08:21.835Z,11.27
2023-05-23T23:10:55.431Z,9.47
2023-05-23T23:13:28.056Z,14.73
2023-05-23T23:16:00.818Z,15.57
2023-05-23T23:18:35.035Z,10.10
2023-05-23T23:21:07.714Z,9.40
2023-05-23T23:23:40.362Z,12.37
2023-05-23T23:26:12.998Z,13.03
2023-05-23T23:28:50.742Z,16.50
2023-05-23T23:31:23.518Z,13.27
2023-05-23T23:33:58.170Z,13.83
2023-05-23T23:36:30.942Z,9.13
2023-05-23T23:39:03.761Z,9.40
2023-05-23T23:41:36.549Z,7.40
2023-05-23T23:44:09.194Z,7.57
2023-05-23T23:46:43.713Z,9.47
2023-05-23T23:49:17.874Z,13.03
2023-05-23T23:51:52.981Z,11.03
2023-05-23T23:54:26.544Z,10.03
2023-05-23T23:57:02.171Z,11.50
2023-05-23T23:59:34.822Z,12.20
